createdAt,value
2022-10-05T00:00:01.270Z,1003
2022-10-05T00:05:31.804Z,1004
2022-10-05T00:11:02.232Z,1006
2022-10-05T00:16:31.780Z,1004
2022-10-05T00:22:02.259Z,1011
2022-10-05T00:27:32.709Z,1001
2022-10-05T00:33:02.178Z,1002
2022-10-05T00:38:32.669Z,1010
2022-10-05T00:44:03.127Z,1006
2022-10-05T00:49:32.616Z,1005
2022-10-05T00:55:03.116Z,999
2022-10-05T01:00:33.568Z,1006
2022-10-05T01:06:03.086Z,1010
2022-10-05T01:11:33.541Z,1012
2022-10-05T01:17:03.067Z,1008
2022-10-05T01:22:33.516Z,1006
2022-10-05T01:28:04.095Z,1009
2022-10-05T01:33:33.483Z,1002
2022-10-05T01:39:03.966Z,1007
2022-10-05T01:44:34.577Z,1008
2022-10-05T01:50:03.912Z,1006
2022-10-05T01:55:34.376Z,1005
2022-10-05T02:01:04.997Z,1006
2022-10-05T02:06:34.342Z,1004
2022-10-05T02:12:04.819Z,1011
2022-10-05T02:17:34.329Z,1001
2022-10-05T02:23:04.786Z,1007
2022-10-05T02:28:35.308Z,1008
2022-10-05T02:34:05.761Z,1006
2022-10-05T02:39:35.219Z,1006
2022-10-05T02:45:05.709Z,1016
2022-10-05T02:50:35.280Z,1011
2022-10-05T02:56:05.683Z,1012
2022-10-05T03:01:36.252Z,1009
2022-10-05T03:07:05.652Z,1006
2022-10-05T03:12:36.101Z,1006
2022-10-05T03:18:06.609Z,1014
2022-10-05T03:23:37.083Z,1015
2022-10-05T03:29:06.547Z,1010
2022-10-05T03:34:37.033Z,1013
2022-10-05T03:40:07.518Z,1018
2022-10-05T03:45:37.031Z,1014
2022-10-05T03:51:07.457Z,1010
2022-10-05T03:56:37.937Z,1013
2022-10-05T04:02:07.418Z,1007
2022-10-05T04:07:37.881Z,1015
2022-10-05T04:13:07.413Z,1014
2022-10-05T04:18:37.862Z,1011
2022-10-05T04:24:08.341Z,1011
2022-10-05T04:29:37.847Z,1013
2022-10-05T04:35:08.313Z,1015
2022-10-05T04:40:38.759Z,1010
2022-10-05T04:46:08.302Z,1014
2022-10-05T04:51:38.740Z,1011
2022-10-05T04:57:09.222Z,1011
2022-10-05T05:02:38.729Z,1007
2022-10-05T05:08:09.206Z,1009
2022-10-05T05:13:39.681Z,1007
2022-10-05T05:19:09.189Z,1007
2022-10-05T05:24:39.654Z,1013
2022-10-05T05:30:10.121Z,1006
2022-10-05T05:35:39.641Z,1015
2022-10-05T05:41:10.101Z,1010
2022-10-05T05:47:02.519Z,1050
2022-10-05T05:52:10.138Z,1050
2022-10-05T05:57:40.543Z,1067
2022-10-05T06:03:11.171Z,1099
2022-10-05T06:08:40.521Z,1108
2022-10-05T06:14:10.980Z,1120
2022-10-05T06:19:41.487Z,1120
2022-10-05T06:25:12.105Z,1116
2022-10-05T06:30:41.536Z,1107
2022-10-05T06:36:12.027Z,1098
2022-10-05T06:41:42.510Z,1092
2022-10-05T06:47:12.000Z,1089
2022-10-05T06:52:42.463Z,1078
2022-10-05T06:58:11.985Z,1103
2022-10-05T07:03:42.434Z,1117
2022-10-05T07:09:12.915Z,1088
2022-10-05T07:14:42.421Z,1070
2022-10-05T07:20:12.910Z,1059
2022-10-05T07:25:43.452Z,1038
2022-10-05T07:31:13.062Z,1025
2022-10-05T07:36:43.489Z,1020
2022-10-05T07:42:13.932Z,1011
2022-10-05T07:47:43.518Z,1007
2022-10-05T07:53:13.895Z,991
2022-10-05T07:58:43.399Z,978
2022-10-05T08:04:13.904Z,963
2022-10-05T08:09:44.334Z,937
2022-10-05T08:15:13.829Z,923
2022-10-05T08:20:44.340Z,902
2022-10-05T08:26:13.796Z,897
2022-10-05T08:31:44.802Z,887
2022-10-05T08:37:14.785Z,883
2022-10-05T08:42:45.322Z,874
2022-10-05T08:48:14.818Z,867
2022-10-05T08:53:45.323Z,860
2022-10-05T08:59:15.819Z,849
2022-10-05T09:04:45.285Z,850
2022-10-05T09:10:15.774Z,842
2022-10-05T09:15:45.386Z,833
2022-10-05T09:21:15.720Z,820
2022-10-05T09:26:46.239Z,811
2022-10-05T09:32:16.709Z,805
2022-10-05T09:37:46.168Z,808
2022-10-05T09:43:16.659Z,803
2022-10-05T09:48:46.138Z,800
2022-10-05T09:54:16.644Z,796
2022-10-05T09:59:47.287Z,782
2022-10-05T10:05:16.709Z,787
2022-10-05T10:10:47.207Z,784
2022-10-05T10:16:16.798Z,778
2022-10-05T10:21:47.503Z,770
2022-10-05T10:27:17.676Z,764
2022-10-05T10:32:47.211Z,758
2022-10-05T10:38:17.625Z,752
2022-10-05T10:43:48.201Z,746
2022-10-05T10:49:17.730Z,740
2022-10-05T10:54:48.169Z,733
2022-10-05T11:00:18.666Z,729
2022-10-05T11:05:48.905Z,733
2022-10-05T11:11:18.632Z,737
2022-10-05T11:16:49.421Z,727
2022-10-05T11:22:18.623Z,720
2022-10-05T11:27:49.191Z,710
2022-10-05T11:33:19.691Z,709
2022-10-05T11:38:50.296Z,711
2022-10-05T11:44:20.735Z,704
2022-10-05T11:49:51.223Z,696
2022-10-05T11:55:20.739Z,688
2022-10-05T12:00:51.187Z,688
2022-10-05T12:06:21.666Z,679
2022-10-05T12:11:54.362Z,669
2022-10-05T12:17:21.625Z,660
2022-10-05T12:22:52.114Z,655
2022-10-05T12:28:21.672Z,650
2022-10-05T12:33:52.077Z,650
2022-10-05T12:39:22.543Z,645
2022-10-05T12:44:52.045Z,644
2022-10-05T12:50:22.494Z,643
2022-10-05T12:55:51.996Z,632
2022-10-05T13:01:22.477Z,626
2022-10-05T13:06:52.938Z,622
2022-10-05T13:12:22.418Z,614
2022-10-05T13:17:52.915Z,609
2022-10-05T13:23:23.367Z,605
2022-10-05T13:28:52.839Z,602
2022-10-05T13:34:23.380Z,601
2022-10-05T13:39:53.956Z,595
2022-10-05T13:45:23.325Z,606
2022-10-05T13:50:53.873Z,677
2022-10-05T13:56:24.277Z,665
2022-10-05T14:01:53.808Z,674
2022-10-05T14:07:24.304Z,708
2022-10-05T14:18:24.206Z,722
2022-10-05T14:23:54.765Z,766
2022-10-05T14:29:24.173Z,752
2022-10-05T14:34:54.643Z,767
2022-10-05T14:40:25.278Z,800
2022-10-05T14:45:54.696Z,824
2022-10-05T14:51:25.071Z,840
2022-10-05T14:56:55.664Z,822
2022-10-05T15:02:25.097Z,799
2022-10-05T15:07:55.510Z,770
2022-10-05T15:13:26.103Z,759
2022-10-05T15:18:54.492Z,744
2022-10-05T15:24:24.975Z,735
2022-10-05T15:29:55.493Z,726
2022-10-05T15:35:25.924Z,719
2022-10-05T15:40:55.414Z,711
2022-10-05T15:46:26.002Z,707
2022-10-05T15:51:56.371Z,697
2022-10-05T15:57:26.829Z,692
2022-10-05T16:02:56.368Z,682
2022-10-05T16:08:26.800Z,679
2022-10-05T16:13:57.267Z,681
2022-10-05T16:19:27.936Z,667
2022-10-05T16:24:58.357Z,667
2022-10-05T16:30:28.900Z,663
2022-10-05T16:35:58.620Z,667
2022-10-05T16:41:28.785Z,765
2022-10-05T16:46:59.282Z,803
2022-10-05T16:52:28.816Z,824
2022-10-05T16:57:59.266Z,840
2022-10-05T17:03:29.733Z,852
2022-10-05T17:08:59.302Z,860
2022-10-05T17:14:29.709Z,881
2022-10-05T17:20:00.200Z,875
2022-10-05T17:25:29.793Z,886
2022-10-05T17:31:00.247Z,882
2022-10-05T17:36:29.660Z,918
2022-10-05T17:42:00.364Z,898
2022-10-05T17:47:30.726Z,896
2022-10-05T17:53:02.447Z,904
2022-10-05T17:58:30.740Z,915
2022-10-05T18:04:01.180Z,910
2022-10-05T18:09:30.661Z,901
2022-10-05T18:15:01.180Z,898
2022-10-05T18:20:31.794Z,893
2022-10-05T18:26:01.105Z,885
2022-10-05T18:31:31.732Z,876
2022-10-05T18:37:01.064Z,878
2022-10-05T18:42:31.653Z,886
2022-10-05T18:48:02.199Z,888
2022-10-05T18:53:32.594Z,892
2022-10-05T18:59:02.076Z,889
2022-10-05T19:04:31.597Z,931
2022-10-05T19:10:02.065Z,907
2022-10-05T19:15:32.582Z,890
2022-10-05T19:21:02.055Z,886
2022-10-05T19:26:32.504Z,874
2022-10-05T19:32:02.970Z,863
2022-10-05T19:37:33.494Z,864
2022-10-05T19:43:02.954Z,862
2022-10-05T19:48:33.428Z,856
2022-10-05T19:54:03.967Z,856
2022-10-05T19:59:34.385Z,852
2022-10-05T20:05:03.887Z,856
2022-10-05T20:10:34.372Z,857
2022-10-05T20:16:04.906Z,850
2022-10-05T20:21:34.325Z,849
2022-10-05T20:27:04.897Z,849
2022-10-05T20:32:35.316Z,847
2022-10-05T20:38:04.757Z,847
2022-10-05T20:43:35.521Z,843
2022-10-05T20:49:05.736Z,838
2022-10-05T20:54:36.239Z,836
2022-10-05T21:00:05.718Z,831
2022-10-05T21:05:36.146Z,831
2022-10-05T21:11:06.640Z,835
2022-10-05T21:16:36.411Z,831
2022-10-05T21:22:06.754Z,829
2022-10-05T21:27:37.224Z,830
2022-10-05T21:33:06.726Z,823
2022-10-05T21:38:37.176Z,822
2022-10-05T21:44:07.752Z,820
2022-10-05T21:49:37.325Z,821
2022-10-05T21:55:07.664Z,828
2022-10-05T22:00:38.353Z,828
2022-10-05T22:06:07.795Z,822
2022-10-05T22:11:38.193Z,823
2022-10-05T22:17:08.722Z,826
2022-10-05T22:22:38.287Z,824
2022-10-05T22:28:08.801Z,820
2022-10-05T22:33:39.152Z,822
2022-10-05T22:39:08.687Z,819
2022-10-05T22:44:38.148Z,823
2022-10-05T22:50:08.619Z,822
2022-10-05T22:55:39.145Z,823
2022-10-05T23:01:09.805Z,817
2022-10-05T23:06:39.168Z,820
2022-10-05T23:12:09.680Z,823
2022-10-05T23:17:40.153Z,813
2022-10-05T23:23:09.630Z,803
2022-10-05T23:28:40.247Z,785
2022-10-05T23:34:09.616Z,776
2022-10-05T23:39:40.087Z,753
2022-10-05T23:45:10.645Z,741
2022-10-05T23:50:40.093Z,725
2022-10-05T23:56:10.575Z,715
